createdAt,value
2018-01-04T00:01:06.667Z,21.93
2018-01-04T00:02:06.372Z,21.88
2018-01-04T00:03:59.267Z,21.93
2018-01-04T00:04:59.238Z,21.82
2018-01-04T00:06:52.895Z,21.89
2018-01-04T00:07:52.601Z,21.89
2018-01-04T00:09:45.531Z,21.88
2018-01-04T00:10:45.467Z,21.85
2018-01-04T00:12:38.627Z,21.85
2018-01-04T00:13:38.341Z,21.79
2018-01-04T00:15:31.254Z,21.82
2018-01-04T00:16:31.215Z,21.83
2018-01-04T00:18:24.393Z,21.79
2018-01-04T00:19:24.089Z,21.79
2018-01-04T00:21:16.995Z,21.80
2018-01-04T00:22:16.954Z,21.80
2018-01-04T00:24:10.134Z,21.77
2018-01-04T00:25:09.832Z,21.75
2018-01-04T00:27:01.749Z,21.82
2018-01-04T00:28:01.685Z,21.79
2018-01-04T00:29:53.563Z,21.82
2018-01-04T00:30:53.818Z,21.75
2018-01-04T00:32:46.445Z,21.79
2018-01-04T00:33:46.410Z,21.80
2018-01-04T00:35:39.297Z,21.83
2018-01-04T00:36:39.281Z,21.73
2018-01-04T00:38:31.155Z,21.77
2018-01-04T00:39:31.136Z,21.77
2018-01-04T00:41:23.009Z,21.85
2018-01-04T00:42:22.984Z,21.80
2018-01-04T00:44:15.399Z,21.83
2018-01-04T00:45:15.333Z,21.79
2018-01-04T00:47:08.233Z,21.83
2018-01-04T00:48:08.206Z,21.82
2018-01-04T00:50:01.374Z,21.91
2018-01-04T00:51:01.081Z,21.79
2018-01-04T00:52:53.965Z,21.85
2018-01-04T00:53:53.938Z,21.82
2018-01-04T00:55:47.106Z,21.85
2018-01-04T00:56:46.817Z,21.79
2018-01-04T00:58:40.205Z,21.79
2018-01-04T00:59:40.176Z,21.82
2018-01-04T01:01:33.855Z,21.82
2018-01-04T01:02:33.529Z,21.80
2018-01-04T01:04:26.413Z,21.79
2018-01-04T01:05:26.403Z,21.77
2018-01-04T01:07:19.619Z,21.85
2018-01-04T01:08:19.278Z,21.75
2018-01-04T01:10:12.179Z,21.82
2018-01-04T01:11:12.148Z,21.76
2018-01-04T01:13:05.317Z,21.75
2018-01-04T01:14:05.015Z,21.72
2018-01-04T01:15:57.907Z,21.75
2018-01-04T01:16:57.893Z,21.73
2018-01-04T01:18:51.096Z,21.75
2018-01-04T01:19:50.758Z,21.76
2018-01-04T01:21:43.641Z,21.73
2018-01-04T01:22:43.628Z,21.72
2018-01-04T01:24:36.797Z,21.73
2018-01-04T01:25:36.489Z,21.72
2018-01-04T01:27:29.378Z,21.82
2018-01-04T01:28:29.351Z,21.76
2018-01-04T01:30:22.530Z,21.73
2018-01-04T01:31:22.227Z,21.77
2018-01-04T01:33:15.110Z,21.69
2018-01-04T01:34:15.101Z,21.77
2018-01-04T01:36:08.024Z,21.75
2018-01-04T01:37:08.236Z,21.73
2018-01-04T01:39:00.878Z,21.69
2018-01-04T01:40:00.835Z,21.69
2018-01-04T01:41:53.732Z,21.70
2018-01-04T01:42:53.699Z,21.73
2018-01-04T01:44:47.121Z,21.73
2018-01-04T01:45:47.100Z,21.72
2018-01-04T01:47:40.445Z,21.69
2018-01-04T01:48:40.418Z,21.70
2018-01-04T01:50:34.106Z,21.77
2018-01-04T01:51:33.788Z,21.67
2018-01-04T01:53:26.691Z,21.72
2018-01-04T01:54:26.643Z,21.75
2018-01-04T01:56:19.538Z,21.70
2018-01-04T01:57:19.519Z,21.72
2018-01-04T01:59:12.411Z,21.67
2018-01-04T02:00:12.391Z,21.73
2018-01-04T02:02:05.548Z,21.76
2018-01-04T02:03:05.256Z,21.67
2018-01-04T02:04:58.644Z,21.80
2018-01-04T02:05:58.616Z,21.72
2018-01-04T02:07:52.012Z,21.73
2018-01-04T02:08:51.978Z,21.72
2018-01-04T02:10:44.878Z,21.76
2018-01-04T02:11:44.840Z,21.77
2018-01-04T02:13:38.516Z,21.73
2018-01-04T02:14:38.200Z,21.79
2018-01-04T02:16:31.093Z,21.72
2018-01-04T02:17:31.072Z,21.77
2018-01-04T02:19:24.224Z,21.72
2018-01-04T02:20:23.933Z,21.77
2018-01-04T02:22:16.835Z,21.76
2018-01-04T02:23:16.797Z,21.77
2018-01-04T02:25:09.994Z,21.73
2018-01-04T02:26:09.665Z,21.67
2018-01-04T02:28:03.077Z,21.79
2018-01-04T02:29:03.032Z,21.72
2018-01-04T02:30:56.191Z,21.70
2018-01-04T02:31:55.901Z,21.70
2018-01-04T02:33:48.786Z,21.67
2018-01-04T02:34:48.761Z,21.72
2018-01-04T02:36:41.945Z,21.79
2018-01-04T02:37:41.626Z,21.75
2018-01-04T02:39:34.517Z,21.73
2018-01-04T02:40:34.486Z,21.76
2018-01-04T02:42:27.675Z,21.76
2018-01-04T02:43:27.381Z,21.76
2018-01-04T02:45:20.903Z,21.75
2018-01-04T02:46:20.730Z,21.72
2018-01-04T02:48:13.911Z,21.75
2018-01-04T02:49:13.596Z,21.83
2018-01-04T02:51:06.516Z,21.79
2018-01-04T02:52:06.468Z,21.83
2018-01-04T02:53:59.637Z,21.83
2018-01-04T02:54:59.335Z,21.77
2018-01-04T02:56:52.740Z,21.76
2018-01-04T02:57:52.696Z,21.79
2018-01-04T02:59:45.854Z,21.79
2018-01-04T03:03:51.470Z,21.79
2018-01-04T03:04:51.427Z,21.76
2018-01-04T03:06:43.296Z,21.73
2018-01-04T03:07:43.279Z,21.79
2018-01-04T03:09:35.165Z,21.77
2018-01-04T03:10:35.129Z,21.76
2018-01-04T03:12:27.296Z,21.77
2018-01-04T03:14:38.872Z,21.80
2018-01-04T03:15:38.845Z,21.79
2018-01-04T03:17:30.713Z,21.80
2018-01-04T03:18:30.697Z,21.79
2018-01-04T03:20:22.675Z,21.82
2018-01-04T03:21:22.555Z,21.92
2018-01-04T03:23:14.413Z,21.88
2018-01-04T03:24:14.400Z,21.89
2018-01-04T03:26:06.549Z,21.91
2018-01-04T03:27:06.249Z,21.82
2018-01-04T03:28:58.119Z,21.91
2018-01-04T03:29:58.095Z,21.92
2018-01-04T03:31:50.559Z,21.89
2018-01-04T03:32:49.952Z,21.92
2018-01-04T03:34:41.827Z,21.93
2018-01-04T03:35:41.797Z,21.89
2018-01-04T03:37:33.705Z,21.95
2018-01-04T03:38:33.939Z,21.95
2018-01-04T03:40:25.525Z,21.93
2018-01-04T03:41:25.503Z,21.91
2018-01-04T03:43:18.407Z,21.91
2018-01-04T03:44:18.374Z,21.93
2018-01-04T03:46:11.266Z,21.98
2018-01-04T03:47:11.244Z,21.92
2018-01-04T03:49:04.637Z,21.93
2018-01-04T03:50:04.606Z,21.93
2018-01-04T03:51:57.771Z,21.98
2018-01-04T03:54:50.393Z,21.99
2018-01-04T03:55:50.344Z,21.88
2018-01-04T03:57:43.511Z,21.93
2018-01-04T03:58:43.212Z,21.89
2018-01-04T04:00:36.118Z,21.92
2018-01-04T04:01:36.087Z,21.93
2018-01-04T04:03:28.980Z,21.95
2018-01-04T04:04:29.524Z,21.92
2018-01-04T04:06:21.850Z,21.91
2018-01-04T04:07:21.826Z,21.92
2018-01-04T04:09:14.711Z,21.89
2018-01-04T04:10:14.686Z,21.95
2018-01-04T04:12:07.618Z,21.95
2018-01-04T04:13:07.559Z,21.93
2018-01-04T04:15:00.724Z,21.89
2018-01-04T04:16:00.431Z,21.93
2018-01-04T04:17:53.321Z,21.92
2018-01-04T04:18:53.304Z,21.93
2018-01-04T04:20:46.460Z,21.93
2018-01-04T04:21:46.169Z,21.93
2018-01-04T04:23:39.065Z,21.93
2018-01-04T04:24:39.041Z,21.91
2018-01-04T04:26:32.696Z,21.92
2018-01-04T04:27:32.405Z,21.96
2018-01-04T04:29:25.821Z,21.95
2018-01-04T04:30:25.764Z,21.92
2018-01-04T04:32:18.918Z,21.91
2018-01-04T04:33:18.629Z,21.93
2018-01-04T04:35:11.526Z,21.99
2018-01-04T04:36:11.512Z,21.92
2018-01-04T04:38:04.662Z,21.96
2018-01-04T04:39:04.370Z,21.99
2018-01-04T04:40:57.273Z,21.99
2018-01-04T04:41:57.239Z,22.04
2018-01-04T04:43:50.407Z,21.96
2018-01-04T04:44:50.114Z,22.02
2018-01-04T04:46:43.050Z,22.00
2018-01-04T04:47:42.979Z,22.06
2018-01-04T04:49:36.144Z,21.99
2018-01-04T04:50:35.846Z,22.04
2018-01-04T04:52:28.756Z,21.99
2018-01-04T04:53:28.716Z,21.99
2018-01-04T04:55:21.908Z,22.00
2018-01-04T04:56:21.592Z,21.98
2018-01-04T04:58:14.484Z,21.99
2018-01-04T04:59:14.456Z,22.04
2018-01-04T05:01:07.621Z,22.10
2018-01-04T05:02:07.324Z,22.07
2018-01-04T05:04:00.282Z,22.10
2018-01-04T05:05:00.245Z,22.07
2018-01-04T05:06:53.861Z,22.06
2018-01-04T05:07:53.566Z,22.07
2018-01-04T05:09:46.464Z,22.11
2018-01-04T05:10:46.429Z,22.08
2018-01-04T05:12:39.591Z,22.14
2018-01-04T05:13:39.308Z,22.11
2018-01-04T05:15:32.198Z,22.14
2018-01-04T05:16:32.170Z,22.17
2018-01-04T05:18:25.335Z,22.11
2018-01-04T05:19:25.047Z,22.13
2018-01-04T05:21:18.690Z,22.10
2018-01-04T05:22:17.914Z,22.14
2018-01-04T05:24:11.075Z,22.11
2018-01-04T05:25:10.785Z,22.08
2018-01-04T05:27:03.689Z,22.06
2018-01-04T05:28:03.655Z,22.06
2018-01-04T05:29:56.835Z,22.08
2018-01-04T05:30:56.523Z,22.07
2018-01-04T05:32:49.905Z,22.08
2018-01-04T05:33:49.881Z,21.99
2018-01-04T05:35:43.063Z,22.08
2018-01-04T05:36:42.749Z,22.02
2018-01-04T05:38:35.686Z,22.08
2018-01-04T05:39:35.632Z,21.98
2018-01-04T05:41:28.801Z,22.04
2018-01-04T05:42:28.511Z,22.04
2018-01-04T05:44:21.413Z,21.98
2018-01-04T05:45:21.374Z,21.95
2018-01-04T05:47:14.290Z,22.06
2018-01-04T05:48:14.241Z,22.00
2018-01-04T05:50:07.162Z,21.95
2018-01-04T05:51:07.111Z,21.91
2018-01-04T05:53:00.276Z,21.93
2018-01-04T05:53:59.984Z,21.85
2018-01-04T05:55:52.923Z,21.93
2018-01-04T05:56:52.855Z,21.93
2018-01-04T05:58:46.015Z,21.93
2018-01-04T05:59:45.717Z,21.93
2018-01-04T06:01:38.619Z,21.96
2018-01-04T06:02:38.589Z,21.88
2018-01-04T06:04:31.764Z,21.91
2018-01-04T06:05:31.460Z,21.95
2018-01-04T06:07:24.363Z,21.88
2018-01-04T06:08:24.331Z,21.83
2018-01-04T06:10:17.216Z,21.91
2018-01-04T06:11:17.203Z,21.91
2018-01-04T06:13:10.120Z,21.89
2018-01-04T06:14:10.058Z,21.91
2018-01-04T06:16:03.230Z,21.80
2018-01-04T06:17:02.931Z,21.88
2018-01-04T06:18:55.834Z,21.93
2018-01-04T06:19:55.803Z,21.89
2018-01-04T06:21:49.194Z,21.92
2018-01-04T06:22:49.164Z,21.91
2018-01-04T06:24:42.057Z,21.92
2018-01-04T06:25:42.032Z,21.92
2018-01-04T06:27:35.203Z,21.91
2018-01-04T06:28:34.899Z,21.91
2018-01-04T06:30:28.017Z,21.92
2018-01-04T06:31:27.821Z,21.92
2018-01-04T06:33:20.661Z,21.92
2018-01-04T06:34:20.640Z,21.83
2018-01-04T06:36:13.536Z,21.91
2018-01-04T06:37:13.509Z,21.91
2018-01-04T06:39:06.677Z,21.91
2018-01-04T06:40:06.382Z,21.95
2018-01-04T06:41:59.278Z,21.83
2018-01-04T06:42:59.242Z,21.92
2018-01-04T06:44:52.143Z,21.89
2018-01-04T06:45:52.386Z,21.83
2018-01-04T06:47:45.022Z,21.89
2018-01-04T06:48:44.983Z,21.82
2018-01-04T06:50:37.873Z,21.82
2018-01-04T06:51:37.852Z,21.83
2018-01-04T06:53:30.744Z,21.83
2018-01-04T06:54:30.725Z,21.77
2018-01-04T06:56:24.118Z,21.79
2018-01-04T06:57:24.082Z,21.75
2018-01-04T06:59:17.259Z,21.82
2018-01-04T07:00:16.952Z,21.76
2018-01-04T07:02:09.846Z,21.85
2018-01-04T07:03:09.822Z,21.79
2018-01-04T07:05:03.034Z,21.77
2018-01-04T07:06:02.696Z,21.80
2018-01-04T07:07:55.591Z,21.76
2018-01-04T07:08:55.565Z,21.75
2018-01-04T07:10:48.465Z,21.76
2018-01-04T07:11:48.434Z,21.72
2018-01-04T07:13:41.330Z,21.76
2018-01-04T07:14:41.310Z,21.69
2018-01-04T07:16:34.207Z,21.75
2018-01-04T07:17:34.185Z,21.75
2018-01-04T07:19:27.904Z,21.70
2018-01-04T07:20:27.538Z,21.75
2018-01-04T07:22:20.946Z,21.75
2018-01-04T07:23:20.907Z,21.75
2018-01-04T07:25:14.073Z,21.73
2018-01-04T07:26:13.767Z,21.72
2018-01-04T07:28:07.170Z,21.73
2018-01-04T07:29:07.132Z,21.69
2018-01-04T07:31:00.312Z,21.73
2018-01-04T07:32:00.012Z,21.76
2018-01-04T07:33:52.908Z,21.76
2018-01-04T07:34:52.877Z,21.76
2018-01-04T07:36:45.782Z,21.72
2018-01-04T07:37:45.747Z,21.77
2018-01-04T07:39:39.158Z,21.72
2018-01-04T07:40:39.107Z,21.77
2018-01-04T07:42:32.270Z,21.75
2018-01-04T07:43:31.984Z,21.79
2018-01-04T07:45:24.872Z,21.72
2018-01-04T07:46:24.845Z,21.82
2018-01-04T07:48:17.736Z,21.75
2018-01-04T07:49:17.719Z,21.76
2018-01-04T07:51:10.613Z,21.83
2018-01-04T07:52:10.579Z,21.72
2018-01-04T07:54:03.753Z,21.73
2018-01-04T07:55:03.461Z,21.73
2018-01-04T07:56:57.326Z,21.79
2018-01-04T07:57:56.316Z,21.76
2018-01-04T07:59:49.481Z,21.75
2018-01-04T08:00:49.194Z,21.73
2018-01-04T08:02:42.244Z,21.69
2018-01-04T08:03:42.068Z,21.72
2018-01-04T08:05:35.719Z,21.83
2018-01-04T08:06:35.426Z,21.79
2018-01-04T08:08:28.333Z,21.75
2018-01-04T08:09:28.298Z,21.76
2018-01-04T08:11:21.951Z,21.76
2018-01-04T08:12:21.666Z,21.72
2018-01-04T08:14:14.586Z,21.75
2018-01-04T08:15:14.552Z,21.69
2018-01-04T08:17:07.713Z,21.73
2018-01-04T08:18:07.432Z,21.79
2018-01-04T08:20:00.307Z,21.69
2018-01-04T08:21:00.276Z,21.75
2018-01-04T08:22:53.454Z,21.69
2018-01-04T08:23:53.141Z,21.72
2018-01-04T08:25:46.046Z,21.72
2018-01-04T08:26:46.021Z,21.69
2018-01-04T08:28:39.242Z,21.73
2018-01-04T08:29:38.885Z,21.60
2018-01-04T08:31:31.830Z,21.70
2018-01-04T08:32:31.756Z,21.69
2018-01-04T08:34:25.414Z,21.73
2018-01-04T08:35:25.117Z,21.66
2018-01-04T08:37:18.035Z,21.69
2018-01-04T08:38:17.995Z,21.67
2018-01-04T08:40:11.147Z,21.72
2018-01-04T08:41:10.857Z,21.61
2018-01-04T08:43:03.758Z,21.64
2018-01-04T08:44:03.725Z,21.62
2018-01-04T08:45:56.888Z,21.67
2018-01-04T08:46:56.588Z,21.69
2018-01-04T08:48:49.509Z,21.73
2018-01-04T08:49:49.457Z,21.73
2018-01-04T08:51:42.673Z,21.66
2018-01-04T08:52:42.327Z,21.64
2018-01-04T08:54:35.225Z,21.67
2018-01-04T08:55:35.203Z,21.73
2018-01-04T08:57:28.362Z,21.70
2018-01-04T08:58:28.070Z,21.62
2018-01-04T09:00:20.971Z,21.70
2018-01-04T09:01:20.945Z,21.69
2018-01-04T09:03:14.100Z,21.70
2018-01-04T09:04:13.806Z,21.67
2018-01-04T09:06:06.836Z,21.70
2018-01-04T09:07:06.677Z,21.73
2018-01-04T09:08:59.843Z,21.73
2018-01-04T09:09:59.549Z,21.69
2018-01-04T09:11:52.944Z,21.69
2018-01-04T09:12:52.912Z,21.67
2018-01-04T09:14:46.577Z,21.75
2018-01-04T09:15:46.273Z,21.72
2018-01-04T09:17:39.177Z,21.67
2018-01-04T09:18:39.146Z,21.69
2018-01-04T09:20:32.308Z,21.70
2018-01-04T09:21:32.012Z,21.73
2018-01-04T09:23:24.944Z,21.70
2018-01-04T09:24:24.881Z,21.76
2018-01-04T09:26:18.281Z,21.70
2018-01-04T09:27:18.266Z,21.70
2018-01-04T09:29:11.162Z,21.73
2018-01-04T09:30:11.133Z,21.67
2018-01-04T09:32:04.792Z,21.67
2018-01-04T09:33:04.505Z,21.73
2018-01-04T09:34:57.394Z,21.62
2018-01-04T09:35:57.364Z,21.66
2018-01-04T09:37:50.533Z,21.64
2018-01-04T09:38:50.241Z,21.67
2018-01-04T09:40:43.167Z,21.73
2018-01-04T09:41:43.101Z,21.62
2018-01-04T09:43:36.757Z,21.64
2018-01-04T09:44:36.469Z,21.67
2018-01-04T09:46:29.358Z,21.58
2018-01-04T09:47:29.329Z,21.60
2018-01-04T09:49:22.493Z,21.61
2018-01-04T09:50:22.196Z,21.57
2018-01-04T09:52:15.097Z,21.64
2018-01-04T09:53:15.073Z,21.69
2018-01-04T09:55:08.241Z,21.60
2018-01-04T09:56:07.935Z,21.64
2018-01-04T09:58:01.345Z,21.58
2018-01-04T09:59:01.304Z,21.64
2018-01-04T10:00:54.199Z,21.64
2018-01-04T10:01:54.185Z,21.62
2018-01-04T10:03:47.070Z,21.69
2018-01-04T10:04:47.039Z,21.57
2018-01-04T10:06:40.431Z,21.55
2018-01-04T10:07:40.416Z,21.55
2018-01-04T10:09:33.312Z,21.64
2018-01-04T10:10:33.280Z,21.52
2018-01-04T10:12:26.172Z,21.55
2018-01-04T10:13:26.153Z,21.52
2018-01-04T10:15:19.076Z,21.51
2018-01-04T10:16:19.028Z,21.62
2018-01-04T10:18:12.193Z,21.54
2018-01-04T10:19:11.893Z,21.66
2018-01-04T10:21:04.788Z,21.57
2018-01-04T10:22:04.785Z,21.67
2018-01-04T10:23:57.923Z,21.62
2018-01-04T10:24:57.632Z,21.58
2018-01-04T10:26:50.533Z,21.58
2018-01-04T10:27:50.501Z,21.64
2018-01-04T10:29:43.395Z,21.54
2018-01-04T10:30:43.371Z,21.62
2018-01-04T10:32:36.456Z,21.62
2018-01-04T10:33:36.243Z,21.60
2018-01-04T10:35:29.641Z,21.58
2018-01-04T10:36:29.614Z,21.58
2018-01-04T10:38:22.519Z,21.61
2018-01-04T10:39:22.473Z,21.66
2018-01-04T10:41:15.362Z,21.61
2018-01-04T10:42:15.352Z,21.60
2018-01-04T10:44:08.249Z,21.72
2018-01-04T10:45:08.214Z,21.58
2018-01-04T10:47:01.385Z,21.67
2018-01-04T10:48:01.082Z,21.61
2018-01-04T10:49:53.999Z,21.66
2018-01-04T10:50:53.948Z,21.67
2018-01-04T10:52:47.114Z,21.67
2018-01-04T10:53:46.816Z,21.58
2018-01-04T10:55:39.722Z,21.61
2018-01-04T10:56:39.706Z,21.62
2018-01-04T10:58:32.596Z,21.66
2018-01-04T10:59:32.561Z,21.67
2018-01-04T11:01:25.954Z,21.62
2018-01-04T11:02:25.941Z,21.64
2018-01-04T11:04:19.091Z,21.64
2018-01-04T11:05:18.792Z,21.60
2018-01-04T11:07:11.729Z,21.66
2018-01-04T11:08:11.654Z,21.61
2018-01-04T11:10:04.822Z,21.66
2018-01-04T11:11:04.522Z,21.57
2018-01-04T11:12:57.422Z,21.51
2018-01-04T11:13:57.388Z,21.58
2018-01-04T11:15:50.561Z,21.55
2018-01-04T11:16:50.271Z,21.57
2018-01-04T11:18:43.674Z,21.62
2018-01-04T11:19:43.630Z,21.60
2018-01-04T11:21:37.306Z,21.61
2018-01-04T11:22:37.000Z,21.55
2018-01-04T11:24:30.426Z,21.61
2018-01-04T11:25:30.355Z,21.55
2018-01-04T11:27:23.521Z,21.55
2018-01-04T11:28:23.230Z,21.51
2018-01-04T11:30:16.130Z,21.55
2018-01-04T11:31:16.096Z,21.58
2018-01-04T11:33:09.753Z,21.51
2018-01-04T11:34:09.462Z,21.58
2018-01-04T11:36:02.439Z,21.57
2018-01-04T11:37:02.329Z,21.58
2018-01-04T11:38:55.994Z,21.57
2018-01-04T11:39:55.701Z,21.58
2018-01-04T11:41:48.617Z,21.60
2018-01-04T11:42:48.564Z,21.58
2018-01-04T11:44:42.230Z,21.58
2018-01-04T11:45:41.936Z,21.60
2018-01-04T11:47:34.844Z,21.66
2018-01-04T11:48:34.799Z,21.52
2018-01-04T11:50:27.965Z,21.54
2018-01-04T11:51:27.671Z,21.51
2018-01-04T11:53:20.591Z,21.64
2018-01-04T11:54:20.536Z,21.51
2018-01-04T11:56:13.703Z,21.66
2018-01-04T11:57:13.406Z,21.55
2018-01-04T11:59:06.350Z,21.61
2018-01-04T12:00:06.297Z,21.61
2018-01-04T12:01:59.447Z,21.67
2018-01-04T12:02:59.152Z,21.62
2018-01-04T12:04:52.054Z,21.66
2018-01-04T12:05:52.015Z,21.54
2018-01-04T12:07:45.178Z,21.66
2018-01-04T12:08:44.886Z,21.55
2018-01-04T12:10:38.302Z,21.54
2018-01-04T12:11:38.244Z,21.64
2018-01-04T12:13:31.418Z,21.52
2018-01-04T12:14:31.117Z,21.52
2018-01-04T12:16:24.540Z,21.69
2018-01-04T12:17:24.478Z,21.54
2018-01-04T12:19:17.864Z,21.52
2018-01-04T12:20:17.855Z,21.58
2018-01-04T12:22:11.247Z,21.55
2018-01-04T12:23:11.207Z,21.58
2018-01-04T12:25:04.890Z,21.55
2018-01-04T12:26:04.563Z,21.60
2018-01-04T12:27:57.970Z,21.57
2018-01-04T12:28:57.926Z,21.52
2018-01-04T12:30:51.609Z,21.58
2018-01-04T12:31:51.299Z,21.57
2018-01-04T12:33:44.536Z,21.57
2018-01-04T12:34:44.153Z,21.57
2018-01-04T12:36:37.055Z,21.57
2018-01-04T12:39:29.925Z,21.58
2018-01-04T12:40:29.894Z,21.55
2018-01-04T12:42:22.781Z,21.48
2018-01-04T12:43:22.764Z,21.60
2018-01-04T12:45:15.939Z,21.55
2018-01-04T12:46:15.628Z,21.54
2018-01-04T12:48:08.530Z,21.48
2018-01-04T12:49:08.496Z,21.50
2018-01-04T12:51:02.103Z,21.48
2018-01-04T12:52:01.361Z,21.57
2018-01-04T12:53:54.260Z,21.50
2018-01-04T12:54:54.238Z,21.57
2018-01-04T12:56:47.416Z,21.52
2018-01-04T12:57:47.104Z,21.51
2018-01-04T12:59:39.996Z,21.61
2018-01-04T13:00:39.982Z,21.61
2018-01-04T13:02:33.161Z,21.58
2018-01-04T13:03:32.846Z,21.57
2018-01-04T13:05:25.733Z,21.60
2018-01-04T13:06:25.712Z,21.57
2018-01-04T13:08:18.967Z,21.57
2018-01-04T13:09:18.587Z,21.61
2018-01-04T13:11:11.475Z,21.58
2018-01-04T13:12:11.447Z,21.55
2018-01-04T13:14:04.656Z,21.54
2018-01-04T13:15:04.316Z,21.54
2018-01-04T13:16:57.698Z,21.52
2018-01-04T13:17:57.688Z,21.52
2018-01-04T13:19:50.860Z,21.52
2018-01-04T13:20:50.547Z,21.58
2018-01-04T13:22:43.953Z,21.61
2018-01-04T13:23:43.921Z,21.51
2018-01-04T13:25:37.622Z,21.54
2018-01-04T13:28:30.677Z,21.52
2018-01-04T13:29:30.660Z,21.52
2018-01-04T13:31:23.824Z,21.55
2018-01-04T13:32:23.528Z,21.52
2018-01-04T13:34:16.464Z,21.55
2018-01-04T13:35:16.402Z,21.54
2018-01-04T13:37:09.593Z,21.58
2018-01-04T13:38:09.265Z,21.55
2018-01-04T13:40:02.676Z,21.54
2018-01-04T13:41:02.627Z,21.60
2018-01-04T13:42:56.115Z,21.55
2018-01-04T13:43:55.498Z,21.72
2018-01-04T13:45:48.414Z,21.57
2018-01-04T13:46:48.375Z,21.60
2018-01-04T13:48:41.564Z,21.50
2018-01-04T13:49:41.243Z,21.55
2018-01-04T13:51:34.161Z,21.45
2018-01-04T13:52:34.130Z,21.58
2018-01-04T13:54:27.317Z,21.61
2018-01-04T13:55:27.003Z,21.55
2018-01-04T13:57:19.917Z,21.48
2018-01-04T13:58:19.892Z,21.50
2018-01-04T14:00:13.217Z,21.58
2018-01-04T14:01:12.741Z,21.54
2018-01-04T14:03:06.148Z,21.58
2018-01-04T14:04:06.106Z,21.51
2018-01-04T14:05:59.305Z,21.55
2018-01-04T14:06:58.998Z,21.51
2018-01-04T14:08:51.868Z,21.55
2018-01-04T14:09:51.846Z,21.61
2018-01-04T14:11:45.560Z,21.51
2018-01-04T14:12:45.215Z,21.50
2018-01-04T14:14:38.112Z,21.51
2018-01-04T14:15:39.656Z,21.57
2018-01-04T14:17:31.289Z,21.52
2018-01-04T14:18:30.953Z,21.51
2018-01-04T14:20:23.846Z,21.51
2018-01-04T14:21:23.829Z,21.54
2018-01-04T14:23:17.489Z,21.58
2018-01-04T14:24:17.182Z,21.54
2018-01-04T14:26:10.086Z,21.51
2018-01-04T14:27:10.073Z,21.51
2018-01-04T14:29:03.770Z,21.50
2018-01-04T14:30:03.457Z,21.48
2018-01-04T14:31:57.003Z,21.58
2018-01-04T14:32:56.796Z,21.55
2018-01-04T14:34:50.464Z,21.51
2018-01-04T14:35:50.145Z,21.45
2018-01-04T14:37:43.039Z,21.50
2018-01-04T14:38:43.020Z,21.48
2018-01-04T14:40:36.187Z,21.54
2018-01-04T14:41:35.888Z,21.51
2018-01-04T14:43:28.772Z,21.60
2018-01-04T14:44:28.759Z,21.48
2018-01-04T14:46:22.185Z,21.62
2018-01-04T14:47:22.155Z,21.58
2018-01-04T14:49:15.046Z,21.52
2018-01-04T14:50:15.019Z,21.57
2018-01-04T14:52:08.234Z,21.52
2018-01-04T14:53:07.894Z,21.55
2018-01-04T14:55:01.288Z,21.57
2018-01-04T14:56:01.263Z,21.55
2018-01-04T14:57:54.928Z,21.52
2018-01-04T14:58:54.622Z,21.66
2018-01-04T15:00:47.539Z,21.62
2018-01-04T15:01:47.507Z,21.58
2018-01-04T15:03:40.688Z,21.66
2018-01-04T15:04:40.375Z,21.69
2018-01-04T15:06:33.278Z,21.61
2018-01-04T15:07:33.254Z,21.60
2018-01-04T15:09:26.561Z,21.69
2018-01-04T15:10:26.130Z,21.64
2018-01-04T15:12:19.513Z,21.66
2018-01-04T15:13:19.490Z,21.69
2018-01-04T15:15:12.665Z,21.67
2018-01-04T15:16:12.357Z,21.67
2018-01-04T15:18:05.774Z,21.64
2018-01-04T15:19:05.728Z,21.62
2018-01-04T15:20:58.904Z,21.62
2018-01-04T15:21:58.598Z,21.62
2018-01-04T15:23:51.485Z,21.62
2018-01-04T15:24:51.462Z,21.62
2018-01-04T15:26:44.369Z,21.60
2018-01-04T15:27:44.332Z,21.64
2018-01-04T15:29:37.216Z,21.67
2018-01-04T15:30:37.198Z,21.64
2018-01-04T15:32:30.373Z,21.58
2018-01-04T15:33:30.071Z,21.58
2018-01-04T15:35:23.458Z,21.64
2018-01-04T15:36:23.440Z,21.69
2018-01-04T15:38:17.143Z,21.61
2018-01-04T15:39:16.823Z,21.64
2018-01-04T15:41:10.319Z,21.70
2018-01-04T15:42:10.184Z,21.72
2018-01-04T15:44:03.976Z,21.77
2018-01-04T15:45:03.551Z,21.66
2018-01-04T15:46:56.433Z,21.73
2018-01-04T15:47:56.418Z,21.73
2018-01-04T15:49:49.580Z,21.67
2018-01-04T15:50:49.279Z,21.73
2018-01-04T15:52:42.660Z,21.70
2018-01-04T15:53:42.653Z,21.75
2018-01-04T15:55:36.341Z,21.73
2018-01-04T15:56:36.009Z,21.72
2018-01-04T15:58:29.405Z,21.72
2018-01-04T15:59:29.376Z,21.80
2018-01-04T16:01:23.077Z,21.77
2018-01-04T16:02:22.760Z,21.76
2018-01-04T16:04:15.638Z,21.77
2018-01-04T16:05:15.805Z,21.70
2018-01-04T16:07:08.893Z,21.75
2018-01-04T16:08:08.511Z,21.82
2018-01-04T16:10:01.399Z,21.88
2018-01-04T16:11:01.375Z,21.76
2018-01-04T16:12:54.554Z,21.82
2018-01-04T16:13:54.248Z,21.79
2018-01-04T16:15:47.154Z,21.82
2018-01-04T16:16:47.134Z,21.83
2018-01-04T16:18:41.060Z,21.88
2018-01-04T16:19:39.990Z,21.79
2018-01-04T16:21:31.904Z,21.82
2018-01-04T16:22:31.863Z,21.85
2018-01-04T16:24:25.027Z,21.88
2018-01-04T16:25:24.726Z,21.85
2018-01-04T16:27:16.612Z,21.92
2018-01-04T16:28:16.620Z,21.83
2018-01-04T16:30:08.761Z,21.93
2018-01-04T16:31:08.447Z,21.95
2018-01-04T16:33:00.339Z,21.92
2018-01-04T16:34:00.314Z,21.83
2018-01-04T16:35:52.376Z,21.88
2018-01-04T16:36:52.438Z,21.85
2018-01-04T16:38:45.055Z,21.85
2018-01-04T16:39:45.036Z,21.77
2018-01-04T16:41:36.919Z,21.85
2018-01-04T16:42:36.901Z,21.83
2018-01-04T16:44:29.268Z,21.80
2018-01-04T16:45:29.256Z,21.77
2018-01-04T16:47:21.121Z,21.77
2018-01-04T16:48:21.094Z,21.79
2018-01-04T16:50:13.243Z,21.82
2018-01-04T16:51:12.940Z,21.77
2018-01-04T16:53:05.865Z,21.85
2018-01-04T16:54:05.815Z,21.83
2018-01-04T16:55:57.678Z,21.83
2018-01-04T16:56:57.657Z,21.88
2018-01-04T16:58:50.556Z,21.88
2018-01-04T16:59:50.536Z,21.82
2018-01-04T17:01:43.715Z,21.91
2018-01-04T17:02:43.396Z,21.85
2018-01-04T17:04:35.781Z,21.82
2018-01-04T17:05:35.758Z,21.91
2018-01-04T17:07:28.638Z,21.91
2018-01-04T17:08:28.617Z,21.93
2018-01-04T17:10:20.539Z,21.91
2018-01-04T17:11:20.482Z,21.91
2018-01-04T17:13:12.654Z,21.91
2018-01-04T17:14:12.320Z,21.91
2018-01-04T17:16:05.230Z,21.93
2018-01-04T17:17:05.203Z,21.91
2018-01-04T17:18:58.625Z,21.91
2018-01-04T17:19:58.607Z,21.88
2018-01-04T17:21:50.531Z,21.93
2018-01-04T17:22:50.452Z,21.96
2018-01-04T17:24:43.114Z,21.99
2018-01-04T17:25:42.805Z,21.96
2018-01-04T17:27:35.091Z,21.96
2018-01-04T17:28:35.039Z,21.96
2018-01-04T17:30:28.212Z,22.00
2018-01-04T17:31:27.943Z,21.96
2018-01-04T17:33:20.818Z,21.96
2018-01-04T17:34:20.779Z,22.06
2018-01-04T17:36:12.674Z,21.99
2018-01-04T17:37:12.635Z,22.00
2018-01-04T17:39:05.697Z,22.06
2018-01-04T17:40:05.516Z,21.98
2018-01-04T17:41:58.708Z,22.08
2018-01-04T17:42:58.379Z,22.02
2018-01-04T17:44:51.294Z,22.08
2018-01-04T17:45:51.243Z,22.10
2018-01-04T17:47:44.182Z,22.07
2018-01-04T17:48:44.399Z,22.10
2018-01-04T17:50:37.007Z,22.10
2018-01-04T17:51:36.994Z,22.06
2018-01-04T17:53:28.857Z,22.08
2018-01-04T17:54:28.837Z,22.08
2018-01-04T17:56:21.737Z,22.08
2018-01-04T17:57:21.702Z,22.10
2018-01-04T17:59:14.598Z,22.08
2018-01-04T18:00:14.579Z,22.10
2018-01-04T18:02:06.791Z,22.08
2018-01-04T18:03:06.440Z,22.06
2018-01-04T18:04:58.318Z,22.10
2018-01-04T18:05:58.290Z,22.13
2018-01-04T18:07:51.965Z,22.22
2018-01-04T18:08:51.659Z,22.15
2018-01-04T18:10:45.043Z,22.13
2018-01-04T18:11:45.027Z,22.18
2018-01-04T18:13:38.420Z,22.15
2018-01-04T18:14:38.399Z,22.06
2018-01-04T18:16:30.823Z,22.07
2018-01-04T18:17:30.806Z,22.14
2018-01-04T18:19:24.229Z,22.14
2018-01-04T18:20:24.185Z,22.17
2018-01-04T18:22:17.075Z,22.11
2018-01-04T18:23:17.053Z,22.11
2018-01-04T18:25:10.236Z,22.13
2018-01-04T18:26:09.924Z,22.17
2018-01-04T18:28:02.813Z,22.11
2018-01-04T18:29:02.795Z,22.10
2018-01-04T18:30:55.722Z,22.08
2018-01-04T18:31:55.673Z,22.11
2018-01-04T18:33:49.063Z,22.06
2018-01-04T18:34:49.113Z,22.11
2018-01-04T18:36:42.339Z,22.22
2018-01-04T18:37:41.906Z,22.23
2018-01-04T18:39:34.798Z,22.29
2018-01-04T18:40:34.785Z,22.29